Time;durP1;ratioP1;P1;durP2;ratioP2;P2;SDS_P1;SDS_P2;PMS_P1;PMS_P2;Temp;Humidity;BMP_temperature;BMP_pressure;BME280_temperature;BME280_humidity;BME280_pressure;Samples;Min_cycle;Max_cycle;Signal;HPM_P1;HPM_P2
2021/12/03 00:00:56;;;;;;;9.73;5.40;;;9.40;52.20;;;;;;5036515;28;20497;-90
2021/12/03 00:03:24;;;;;;;7.40;4.30;;;9.30;54.90;;;;;;5036615;28;20480;-90
2021/12/03 00:05:52;;;;;;;9.30;4.93;;;9.90;56.50;;;;;;5036522;28;20437;-89
2021/12/03 00:08:19;;;;;;;11.50;5.83;;;10.00;55.10;;;;;;5036490;28;20527;-89
2021/12/03 00:10:53;;;;;;;6.20;4.87;;;10.30;53.70;;;;;;5036158;28;20527;-89
2021/12/03 00:13:20;;;;;;;10.33;4.57;;;10.40;52.90;;;;;;5036304;28;20520;-89
2021/12/03 00:15:49;;;;;;;7.33;4.37;;;10.40;52.80;;;;;;5036365;28;20484;-89
2021/12/03 00:18:16;;;;;;;8.33;4.80;;;10.40;51.40;;;;;;5036423;28;20787;-89
2021/12/03 00:20:43;;;;;;;6.53;4.63;;;10.50;53.60;;;;;;5035921;28;21019;-89
2021/12/03 00:23:10;;;;;;;10.23;5.50;;;10.60;52.70;;;;;;5036177;28;20476;-89
2021/12/03 00:25:37;;;;;;;8.53;4.93;;;10.30;51.50;;;;;;5035813;28;20460;-89
2021/12/03 00:28:05;;;;;;;8.60;5.50;;;9.90;53.30;;;;;;5035457;28;20709;-88
2021/12/03 00:30:32;;;;;;;8.93;5.60;;;9.90;52.60;;;;;;5035731;28;20496;-89
2021/12/03 00:33:01;;;;;;;8.03;4.70;;;9.60;52.00;;;;;;5036232;28;20495;-89
2021/12/03 00:35:28;;;;;;;7.97;6.13;;;9.60;53.60;;;;;;5035407;28;20500;-89
2021/12/03 00:37:55;;;;;;;10.20;4.77;;;9.20;48.40;;;;;;5035544;28;20484;-89
2021/12/03 00:40:23;;;;;;;7.47;5.20;;;8.90;55.10;;;;;;5036003;28;20608;-88
2021/12/03 00:42:50;;;;;;;8.67;6.00;;;8.70;54.60;;;;;;5035092;28;20449;-89
2021/12/03 00:45:17;;;;;;;10.90;5.60;;;8.70;55.10;;;;;;5035929;28;20859;-89
2021/12/03 00:47:45;;;;;;;9.27;5.83;;;8.70;53.00;;;;;;5037351;28;20568;-89
2021/12/03 00:50:17;;;;;;;8.83;5.57;;;8.60;56.10;;;;;;5042029;28;20469;-89
2021/12/03 00:52:44;;;;;;;9.73;5.50;;;9.10;58.10;;;;;;5039688;28;20947;-88
2021/12/03 00:55:11;;;;;;;6.33;4.67;;;9.10;55.30;;;;;;5035316;28;20953;-88
2021/12/03 00:57:39;;;;;;;7.40;4.83;;;9.30;59.00;;;;;;5035533;28;20532;-88
2021/12/03 01:00:10;;;;;;;6.47;4.80;;;9.70;57.50;;;;;;5034946;28;20465;-89
2021/12/03 01:02:37;;;;;;;9.27;5.87;;;9.90;57.30;;;;;;5035227;28;20480;-88
2021/12/03 01:05:06;;;;;;;11.77;5.67;;;10.20;55.40;;;;;;5035592;28;20805;-88
2021/12/03 01:07:35;;;;;;;8.27;6.17;;;10.50;53.60;;;;;;5035483;28;20575;-89
2021/12/03 01:10:02;;;;;;;11.70;5.83;;;10.00;50.20;;;;;;5035732;28;20489;-89
2021/12/03 01:12:29;;;;;;;9.20;5.70;;;10.10;52.40;;;;;;5035621;28;20450;-88
2021/12/03 01:14:56;;;;;;;8.70;6.13;;;9.80;51.10;;;;;;5035607;28;20438;-88
2021/12/03 01:17:23;;;;;;;8.57;5.87;;;9.10;49.80;;;;;;5035793;28;20445;-88
2021/12/03 01:19:50;;;;;;;11.77;5.87;;;9.30;53.80;;;;;;5035599;28;20495;-88
2021/12/03 01:22:17;;;;;;;8.70;6.93;;;8.80;50.90;;;;;;5038418;28;20548;-88
2021/12/03 01:24:45;;;;;;;10.30;6.27;;;7.80;50.10;;;;;;5037634;28;20488;-89
2021/12/03 01:27:12;;;;;;;13.13;6.17;;;6.70;54.30;;;;;;5035098;28;20536;-88
2021/12/03 01:29:39;;;;;;;10.93;6.40;;;6.70;54.40;;;;;;5033912;28;20546;-88
2021/12/03 01:32:07;;;;;;;10.77;6.73;;;6.90;59.70;;;;;;5034214;28;20448;-88
2021/12/03 01:34:34;;;;;;;15.10;6.70;;;7.10;54.30;;;;;;5033627;28;20452;-89
2021/12/03 01:37:01;;;;;;;10.30;6.07;;;7.20;55.20;;;;;;5034658;28;20444;-89
2021/12/03 01:39:28;;;;;;;13.33;6.90;;;7.70;58.30;;;;;;5034876;28;20861;-89
2021/12/03 01:41:56;;;;;;;7.93;5.67;;;7.10;54.20;;;;;;5034415;28;20485;-89
2021/12/03 01:44:23;;;;;;;12.63;7.20;;;7.10;58.70;;;;;;5034725;28;20522;-88
2021/12/03 01:46:50;;;;;;;10.50;6.60;;;7.40;54.50;;;;;;5034321;28;20432;-89
2021/12/03 01:49:17;;;;;;;11.90;6.43;;;7.40;54.20;;;;;;5036016;28;20485;-89
2021/12/03 01:51:45;;;;;;;9.70;6.50;;;7.40;56.30;;;;;;5034127;28;20493;-89
2021/12/03 01:54:12;;;;;;;10.73;6.70;;;7.60;56.60;;;;;;5034233;28;20496;-89
2021/12/03 01:56:39;;;;;;;11.23;6.53;;;7.70;54.80;;;;;;5033916;28;20465;-88
2021/12/03 01:59:10;;;;;;;8.80;6.37;;;7.10;52.70;;;;;;5033718;28;20559;-89
2021/12/03 02:01:37;;;;;;;9.20;6.03;;;6.80;54.70;;;;;;5034153;28;20527;-89
2021/12/03 02:04:05;;;;;;;11.73;6.50;;;6.70;57.40;;;;;;5032385;28;20552;-88
2021/12/03 02:06:33;;;;;;;11.40;6.77;;;6.50;56.20;;;;;;5033297;28;20515;-88
2021/12/03 02:09:00;;;;;;;9.23;6.47;;;7.00;61.50;;;;;;5033158;28;20512;-89
2021/12/03 02:11:28;;;;;;;14.80;6.30;;;7.10;57.20;;;;;;5033869;28;20455;-88
2021/12/03 02:13:56;;;;;;;9.00;6.20;;;7.30;55.80;;;;;;5034808;28;20973;-88
2021/12/03 02:16:24;;;;;;;18.03;6.53;;;7.40;55.90;;;;;;5034592;28;20888;-88
2021/12/03 02:18:52;;;;;;;12.07;6.00;;;7.40;55.30;;;;;;5034531;28;20590;-87
2021/12/03 02:21:21;;;;;;;12.17;7.20;;;7.40;55.50;;;;;;5037160;28;20488;-88
2021/12/03 02:23:51;;;;;;;15.53;6.90;;;7.20;55.50;;;;;;5037871;28;20960;-90
2021/12/03 02:26:19;;;;;;;8.70;6.40;;;7.30;55.90;;;;;;5036898;28;20443;-89
2021/12/03 02:28:48;;;;;;;11.17;6.93;;;7.40;52.20;;;;;;5038169;28;20912;-89
2021/12/03 02:31:16;;;;;;;13.67;6.97;;;7.50;55.90;;;;;;5037590;28;20510;-88
2021/12/03 02:33:44;;;;;;;12.70;7.30;;;7.80;56.30;;;;;;5056521;28;20437;-86
2021/12/03 02:36:11;;;;;;;11.90;7.53;;;7.80;56.10;;;;;;5050747;28;20762;-88
2021/12/03 02:38:40;;;;;;;8.13;6.20;;;7.80;52.90;;;;;;5052578;28;20436;-86
2021/12/03 02:41:07;;;;;;;9.90;6.30;;;7.80;52.70;;;;;;5057854;28;20441;-85
2021/12/03 02:43:34;;;;;;;9.70;7.03;;;7.70;53.80;;;;;;5043937;28;20861;-88
2021/12/03 02:46:01;;;;;;;10.20;6.47;;;7.40;51.30;;;;;;5033998;28;20441;-88
2021/12/03 02:48:31;;;;;;;9.73;5.37;;;7.30;53.20;;;;;;5033871;28;20481;-88
2021/12/03 02:50:58;;;;;;;8.37;6.20;;;7.50;55.40;;;;;;5033970;28;20462;-89
2021/12/03 02:53:25;;;;;;;14.57;6.40;;;7.90;57.50;;;;;;5033446;28;20441;-89
2021/12/03 02:55:54;;;;;;;11.80;6.40;;;8.20;54.80;;;;;;5033985;28;20439;-88
2021/12/03 02:58:22;;;;;;;7.50;5.60;;;8.00;53.60;;;;;;5033922;28;20457;-89
2021/12/03 03:00:51;;;;;;;11.90;7.13;;;8.40;59.90;;;;;;5032895;28;20888;-89
2021/12/03 03:03:18;;;;;;;6.90;4.90;;;9.20;55.80;;;;;;5033952;28;20468;-88
2021/12/03 03:05:52;;;;;;;17.00;6.07;;;9.50;57.30;;;;;;5033916;28;20465;-89
2021/12/03 03:08:19;;;;;;;9.00;6.07;;;9.90;56.30;;;;;;5033322;28;20551;-88
2021/12/03 03:10:46;;;;;;;9.47;5.80;;;9.90;50.40;;;;;;5033641;28;20460;-89
2021/12/03 03:13:14;;;;;;;7.50;5.70;;;9.20;49.90;;;;;;5034706;28;20441;-89
2021/12/03 03:15:41;;;;;;;14.53;5.83;;;8.60;51.40;;;;;;5034635;28;20461;-88
2021/12/03 03:18:12;;;;;;;6.83;5.03;;;8.30;51.80;;;;;;5033629;28;20536;-89
2021/12/03 03:20:40;;;;;;;9.70;6.70;;;8.20;53.80;;;;;;5033520;28;20457;-88
2021/12/03 03:23:08;;;;;;;8.03;6.00;;;8.50;52.60;;;;;;5033915;28;20454;-88
2021/12/03 03:25:35;;;;;;;9.60;5.70;;;8.50;53.60;;;;;;5033898;28;20540;-89
2021/12/03 03:28:02;;;;;;;8.23;5.97;;;8.40;50.60;;;;;;5040020;28;20536;-89
2021/12/03 03:30:31;;;;;;;10.00;6.17;;;8.60;54.30;;;;;;5038991;28;20504;-89
2021/12/03 03:32:58;;;;;;;14.47;7.00;;;8.80;54.30;;;;;;5034836;28;20449;-88
2021/12/03 03:35:26;;;;;;;8.27;6.03;;;8.40;54.00;;;;;;5015816;28;20465;-88
2021/12/03 03:37:53;;;;;;;9.10;6.70;;;8.40;52.20;;;;;;5014294;28;20465;-88
2021/12/03 03:40:21;;;;;;;8.60;6.40;;;8.20;54.70;;;;;;5013199;28;20519;-88
2021/12/03 03:42:48;;;;;;;11.00;6.80;;;7.80;54.90;;;;;;5013544;28;20461;-88
2021/12/03 03:45:18;;;;;;;12.10;7.47;;;7.70;52.90;;;;;;5013303;28;20514;-88
2021/12/03 03:47:47;;;;;;;9.47;6.40;;;7.50;50.40;;;;;;5013497;28;20449;-88
2021/12/03 03:50:16;;;;;;;12.60;6.90;;;7.40;54.60;;;;;;5012679;28;20468;-88
2021/12/03 03:52:44;;;;;;;11.77;7.10;;;7.30;53.90;;;;;;5013224;28;20526;-87
2021/12/03 03:55:14;;;;;;;8.63;7.03;;;7.20;51.60;;;;;;5010181;28;20740;-87
2021/12/03 03:57:42;;;;;;;9.40;6.70;;;6.90;52.90;;;;;;4995870;28;20519;-88
2021/12/03 04:00:12;;;;;;;7.73;6.23;;;6.70;53.60;;;;;;4994850;28;20463;-88
2021/12/03 04:02:40;;;;;;;11.47;6.80;;;7.30;60.00;;;;;;4995179;28;20880;-89
2021/12/03 04:05:09;;;;;;;11.07;7.00;;;7.90;54.50;;;;;;4993714;28;20534;-89
2021/12/03 04:07:36;;;;;;;14.03;7.60;;;7.90;53.80;;;;;;4997756;28;20465;-88
2021/12/03 04:10:03;;;;;;;11.30;7.53;;;7.40;52.10;;;;;;5013387;28;20488;-89
2021/12/03 04:12:30;;;;;;;10.47;6.90;;;7.10;54.40;;;;;;5013400;28;20458;-88
2021/12/03 04:14:57;;;;;;;9.87;6.93;;;7.20;55.30;;;;;;5016143;28;20477;-89
2021/12/03 04:17:24;;;;;;;7.87;6.10;;;7.00;54.20;;;;;;5013545;28;20499;-88
2021/12/03 04:19:51;;;;;;;13.40;6.97;;;7.10;54.60;;;;;;5013604;28;20470;-89
2021/12/03 04:22:24;;;;;;;8.60;6.50;;;7.10;55.30;;;;;;5013465;28;20480;-88
2021/12/03 04:24:51;;;;;;;20.23;7.03;;;6.70;53.60;;;;;;5007988;28;20934;-88
2021/12/03 04:27:19;;;;;;;12.43;6.80;;;6.60;55.20;;;;;;5001527;28;20453;-88
2021/12/03 04:29:46;;;;;;;12.73;6.23;;;6.60;54.60;;;;;;5017439;28;20488;-89
2021/12/03 04:32:13;;;;;;;11.20;6.90;;;6.50;57.60;;;;;;5017603;28;20489;-89
2021/12/03 04:34:40;;;;;;;12.93;6.60;;;6.50;54.60;;;;;;5016745;28;20437;-89
2021/12/03 04:37:07;;;;;;;8.53;6.33;;;6.60;55.00;;;;;;5017183;28;20476;-88
2021/12/03 04:39:36;;;;;;;7.77;6.77;;;6.60;57.60;;;;;;5029265;28;20484;-88
2021/12/03 04:42:03;;;;;;;13.20;7.93;;;6.60;55.30;;;;;;5030799;28;20496;-89
2021/12/03 04:44:30;;;;;;;12.53;7.00;;;6.60;57.50;;;;;;5017736;28;20474;-89
2021/12/03 04:46:57;;;;;;;11.47;7.70;;;6.80;56.00;;;;;;5017754;28;20462;-88
2021/12/03 04:49:24;;;;;;;11.67;8.00;;;6.90;54.40;;;;;;5013814;28;20580;-87
2021/12/03 04:51:51;;;;;;;9.70;6.80;;;6.80;55.60;;;;;;5001196;28;20461;-88
2021/12/03 04:54:18;;;;;;;14.70;8.07;;;6.90;55.70;;;;;;5016841;28;20582;-87
2021/12/03 04:56:54;;;;;;;10.77;7.27;;;7.00;54.70;;;;;;5016386;28;20536;-88
2021/12/03 04:59:24;;;;;;;11.97;6.50;;;7.20;53.90;;;;;;5017149;28;20487;-89
2021/12/03 05:02:02;;;;;;;7.67;5.70;;;7.60;58.20;;;;;;5018075;28;20466;-89
2021/12/03 05:04:37;;;;;;;10.40;6.07;;;7.80;57.40;;;;;;5021168;28;20445;-89
2021/12/03 05:07:27;;;;;;;12.93;7.27;;;8.10;56.10;;;;;;5017896;28;20441;-89
2021/12/03 05:10:03;;;;;;;11.10;6.60;;;7.70;51.80;;;;;;5009943;28;20573;-89
2021/12/03 05:12:36;;;;;;;11.57;7.33;;;7.20;52.70;;;;;;5019751;28;20452;-89
2021/12/03 05:15:04;;;;;;;9.97;6.47;;;6.70;54.60;;;;;;5021006;28;20470;-89
2021/12/03 05:17:32;;;;;;;11.70;7.40;;;6.60;53.30;;;;;;5032668;28;20495;-86
2021/12/03 05:20:04;;;;;;;11.43;6.67;;;6.20;55.50;;;;;;5029624;28;20473;-86
2021/12/03 05:22:36;;;;;;;9.50;7.20;;;6.10;56.00;;;;;;5010481;28;20415;-86
2021/12/03 05:25:06;;;;;;;10.70;7.17;;;6.60;53.90;;;;;;5030785;28;20518;-85
2021/12/03 05:27:42;;;;;;;13.27;7.10;;;7.00;53.70;;;;;;5033742;28;20441;-88
2021/12/03 05:30:11;;;;;;;16.63;6.50;;;6.90;51.90;;;;;;5019044;28;20493;-88
2021/12/03 05:32:40;;;;;;;12.93;6.57;;;7.10;55.90;;;;;;5017455;28;20489;-88
2021/12/03 05:35:10;;;;;;;8.27;5.93;;;7.90;58.10;;;;;;5026511;28;20454;-88
2021/12/03 05:37:37;;;;;;;23.60;8.40;;;7.90;56.00;;;;;;5020119;28;20449;-87
2021/12/03 05:40:07;;;;;;;12.30;7.83;;;6.90;51.70;;;;;;5019462;28;20497;-88
2021/12/03 05:42:34;;;;;;;9.67;6.47;;;6.90;54.90;;;;;;5015415;28;20538;-88
2021/12/03 05:45:03;;;;;;;12.13;7.80;;;7.40;55.90;;;;;;5014819;28;20457;-88
2021/12/03 05:47:30;;;;;;;8.87;6.70;;;7.80;53.00;;;;;;5001412;28;20449;-88
2021/12/03 05:49:57;;;;;;;10.70;6.70;;;7.60;52.70;;;;;;5001990;28;20480;-88
2021/12/03 05:52:24;;;;;;;12.70;8.43;;;7.40;53.80;;;;;;5007751;28;20490;-88
2021/12/03 05:54:51;;;;;;;10.30;7.93;;;7.30;51.70;;;;;;5006081;28;20449;-88
2021/12/03 05:57:18;;;;;;;10.47;6.93;;;7.60;53.10;;;;;;5011824;28;20503;-88
2021/12/03 05:59:45;;;;;;;19.70;7.03;;;8.00;51.10;;;;;;5016597;28;20485;-89
2021/12/03 06:02:16;;;;;;;12.93;7.10;;;8.20;53.10;;;;;;5015024;28;20445;-88
2021/12/03 06:04:43;;;;;;;8.43;6.77;;;7.50;48.40;;;;;;5015169;28;20454;-88
2021/12/03 06:18:32;;;;;;;13.67;7.83;;;6.40;51.50;;;;;;5013841;28;20834;-89
2021/12/03 06:21:20;;;;;;;14.00;8.40;;;6.20;53.00;;;;;;4995303;28;20497;-88
2021/12/03 06:24:20;;;;;;;13.07;8.83;;;6.30;52.60;;;;;;4998489;28;20959;-88
2021/12/03 06:27:29;;;;;;;;;;;;;;;;;;;;;
2021/12/03 06:37:13;;;;;;;11.10;7.97;;;6.20;54.00;;;;;;4920651;29;20484;-88
2021/12/03 06:39:45;;;;;;;17.80;7.80;;;5.90;53.90;;;;;;4931779;29;20995;-87
2021/12/03 06:45:29;;;;;;;13.30;8.57;;;6.30;51.70;;;;;;4950015;28;20509;-88
2021/12/03 06:48:05;;;;;;;16.30;9.60;;;6.20;52.30;;;;;;4888022;29;20940;-88
2021/12/03 06:50:45;;;;;;;14.40;8.63;;;6.40;51.50;;;;;;4932508;29;20566;-88
2021/12/03 06:53:18;;;;;;;12.10;7.80;;;6.40;50.60;;;;;;4953610;29;20443;-88
2021/12/03 06:55:53;;;;;;;10.13;7.37;;;6.10;54.00;;;;;;4954346;29;20454;-88
2021/12/03 06:58:25;;;;;;;13.30;7.70;;;6.50;58.80;;;;;;4953862;29;20466;-89
2021/12/03 07:03:37;;;;;;;11.27;7.87;;;7.90;56.60;;;;;;4914144;29;20597;-87
2021/12/03 07:06:05;;;;;;;12.53;6.80;;;7.90;50.10;;;;;;4913084;28;20460;-88
2021/12/03 07:08:32;;;;;;;11.20;7.60;;;7.40;49.10;;;;;;4973857;28;20474;-88
2021/12/03 07:10:59;;;;;;;10.33;6.80;;;6.40;49.50;;;;;;4974342;28;20535;-87
2021/12/03 07:13:31;;;;;;;13.80;7.77;;;6.00;51.50;;;;;;4980469;28;20490;-88
2021/12/03 07:16:04;;;;;;;13.70;8.20;;;5.90;52.40;;;;;;4994256;28;20463;-88
2021/12/03 07:18:31;;;;;;;12.10;8.50;;;5.10;56.20;;;;;;4976418;28;20516;-88
2021/12/03 07:20:58;;;;;;;13.13;9.07;;;5.30;53.20;;;;;;5120668;22;20507;-87
2021/12/03 07:23:26;;;;;;;16.20;8.67;;;5.80;53.80;;;;;;5015094;28;20486;-87
2021/12/03 07:25:53;;;;;;;13.63;8.37;;;5.70;57.20;;;;;;5013133;28;20625;-87
2021/12/03 07:28:20;;;;;;;11.80;8.60;;;5.50;51.50;;;;;;5013545;28;20449;-88
2021/12/03 07:30:47;;;;;;;32.40;8.97;;;5.20;58.20;;;;;;5010625;28;20538;-87
2021/12/03 07:33:17;;;;;;;12.13;8.43;;;5.20;54.00;;;;;;4993994;28;20469;-88
2021/12/03 07:35:45;;;;;;;14.23;8.70;;;5.40;53.30;;;;;;4995268;28;20444;-88
2021/12/03 07:38:14;;;;;;;15.83;7.53;;;5.30;53.70;;;;;;4994241;28;20460;-88
2021/12/03 07:40:43;;;;;;;16.20;8.53;;;5.50;57.30;;;;;;4997905;28;20472;-89
2021/12/03 07:43:10;;;;;;;13.57;7.83;;;5.80;51.90;;;;;;5011318;28;20905;-89
2021/12/03 07:45:37;;;;;;;11.43;8.10;;;5.60;53.00;;;;;;4997473;28;20449;-88
2021/12/03 07:48:10;;;;;;;12.47;8.23;;;5.50;51.80;;;;;;5009312;28;20431;-88
2021/12/03 07:50:39;;;;;;;14.13;8.87;;;5.90;52.10;;;;;;5030727;28;20477;-89
2021/12/03 07:53:07;;;;;;;13.03;8.30;;;6.20;55.70;;;;;;5022642;28;20485;-88
2021/12/03 07:55:35;;;;;;;14.93;8.67;;;5.90;54.50;;;;;;5003868;28;20466;-89
2021/12/03 07:58:05;;;;;;;13.27;8.07;;;5.50;51.10;;;;;;5004584;28;20446;-89
2021/12/03 08:00:32;;;;;;;20.30;8.43;;;6.00;53.80;;;;;;5027062;28;20472;-89
2021/12/03 08:03:00;;;;;;;13.03;7.83;;;5.80;50.90;;;;;;5040746;28;20451;-86
2021/12/03 08:05:27;;;;;;;11.53;7.53;;;5.30;52.00;;;;;;5032738;28;20437;-88
2021/12/03 08:07:55;;;;;;;12.23;7.20;;;5.30;53.90;;;;;;5040023;28;20423;-85
2021/12/03 08:13:12;;;;;;;12.40;6.93;;;5.50;53.50;;;;;;5028112;28;20449;-88
2021/12/03 08:15:39;;;;;;;12.27;7.70;;;5.70;52.90;;;;;;5026047;28;20452;-88
2021/12/03 08:18:06;;;;;;;10.20;7.10;;;5.60;51.00;;;;;;5026058;28;20449;-88
2021/12/03 08:20:34;;;;;;;14.43;7.90;;;5.40;51.30;;;;;;5025899;28;20481;-89
2021/12/03 08:23:01;;;;;;;13.97;7.77;;;5.10;51.60;;;;;;5023209;28;20436;-88
2021/12/03 08:25:29;;;;;;;19.03;8.73;;;5.20;53.70;;;;;;5022216;28;20454;-88
2021/12/03 08:27:56;;;;;;;20.40;7.70;;;5.00;54.10;;;;;;5020339;28;20512;-89
2021/12/03 08:30:28;;;;;;;10.23;7.20;;;5.40;52.00;;;;;;5020207;28;20559;-89
2021/12/03 08:32:55;;;;;;;11.03;7.17;;;5.40;51.00;;;;;;5019977;28;20868;-88
2021/12/03 08:35:22;;;;;;;10.03;6.50;;;5.90;55.50;;;;;;5018414;28;20445;-88
2021/12/03 08:37:50;;;;;;;9.83;6.67;;;6.30;59.20;;;;;;5021219;28;20487;-88
2021/12/03 08:40:17;;;;;;;17.00;7.30;;;6.60;50.40;;;;;;5019290;28;20992;-88
2021/12/03 08:42:44;;;;;;;9.90;6.57;;;5.90;52.60;;;;;;5019255;28;20496;-88
2021/12/03 08:45:12;;;;;;;8.20;6.30;;;6.10;51.00;;;;;;5019946;28;20473;-89
2021/12/03 08:47:41;;;;;;;9.57;6.60;;;6.10;50.60;;;;;;5023197;28;20536;-89
2021/12/03 08:50:12;;;;;;;10.43;7.10;;;6.50;50.90;;;;;;5020397;28;20481;-88
2021/12/03 08:53:05;;;;;;;13.30;6.50;;;6.10;50.50;;;;;;5029597;28;20488;-89
2021/12/03 08:58:57;;;;;;;9.13;5.90;;;6.00;51.30;;;;;;5017664;28;20427;-89
2021/12/03 09:01:24;;;;;;;7.97;5.73;;;6.50;49.50;;;;;;4999510;28;20466;-88
2021/12/03 09:03:53;;;;;;;11.53;6.50;;;6.70;47.70;;;;;;5006638;28;20876;-88
2021/12/03 09:06:31;;;;;;;9.83;5.67;;;6.40;48.00;;;;;;5016906;28;20485;-88
2021/12/03 09:09:01;;;;;;;8.83;6.40;;;6.30;49.30;;;;;;5017953;28;20544;-87
2021/12/03 09:11:29;;;;;;;13.80;6.50;;;6.30;49.90;;;;;;5016768;28;20495;-88
2021/12/03 09:14:02;;;;;;;8.53;5.63;;;5.70;49.10;;;;;;5017335;28;20452;-88
2021/12/03 09:16:28;;;;;;;8.53;5.63;;;5.50;49.90;;;;;;5017222;28;20434;-88
2021/12/03 09:18:59;;;;;;;11.83;6.50;;;5.50;49.70;;;;;;5017631;28;20437;-87
2021/12/03 09:21:28;;;;;;;7.80;5.70;;;5.20;50.90;;;;;;5017872;28;20809;-87
2021/12/03 09:24:05;;;;;;;9.20;6.30;;;5.30;52.30;;;;;;5018664;28;20937;-87
2021/12/03 09:26:36;;;;;;;9.80;6.10;;;5.50;50.50;;;;;;5018477;28;21025;-86
2021/12/03 09:29:08;;;;;;;13.67;6.77;;;5.10;50.60;;;;;;5020559;28;20557;-87
2021/12/03 09:31:38;;;;;;;10.73;6.33;;;5.80;51.10;;;;;;5019465;28;20856;-87
2021/12/03 09:34:09;;;;;;;24.33;6.70;;;5.20;53.60;;;;;;5017825;28;20442;-87
2021/12/03 09:36:47;;;;;;;12.27;6.13;;;5.30;54.90;;;;;;5020877;28;20438;-87
2021/12/03 09:39:18;;;;;;;10.27;6.60;;;5.30;52.80;;;;;;5032929;28;20464;-85
2021/12/03 09:41:45;;;;;;;12.53;6.80;;;5.50;51.70;;;;;;5038610;28;20472;-84
2021/12/03 09:44:13;;;;;;;8.40;5.63;;;5.00;51.60;;;;;;5038486;28;20434;-86
2021/12/03 09:46:40;;;;;;;9.20;5.80;;;4.90;51.10;;;;;;5037223;28;20434;-87
2021/12/03 09:49:25;;;;;;;9.07;6.60;;;5.00;51.60;;;;;;5037089;28;20529;-86
2021/12/03 09:52:05;;;;;;;9.70;6.03;;;5.30;51.40;;;;;;5036452;28;20527;-84
2021/12/03 09:54:39;;;;;;;13.00;6.27;;;5.70;50.00;;;;;;5038499;28;20456;-84
2021/12/03 09:57:10;;;;;;;10.97;5.67;;;6.00;51.70;;;;;;5037063;28;20536;-86
2021/12/03 10:02:30;;;;;;;8.87;5.90;;;5.00;50.10;;;;;;5038011;28;20400;-88
2021/12/03 10:05:25;;;;;;;7.50;5.00;;;5.90;49.10;;;;;;5026716;28;20440;-88
2021/12/03 10:13:35;;;;;;;7.43;5.33;;;5.30;50.90;;;;;;5005563;28;20791;-89
2021/12/03 10:16:12;;;;;;;9.17;5.33;;;5.70;49.80;;;;;;4994799;28;20807;-88
2021/12/03 10:18:43;;;;;;;8.63;6.33;;;6.00;48.40;;;;;;4994658;28;20496;-88
2021/12/03 10:21:38;;;;;;;7.50;5.70;;;6.00;52.40;;;;;;4995204;28;20463;-89
2021/12/03 10:24:33;;;;;;;9.00;5.80;;;6.10;48.60;;;;;;4993934;28;20470;-89
2021/12/03 10:27:27;;;;;;;9.23;5.10;;;6.60;54.70;;;;;;4995256;28;20530;-88
2021/12/03 10:30:21;;;;;;;10.67;7.20;;;6.50;49.10;;;;;;5006954;28;20485;-88
2021/12/03 10:33:02;;;;;;;9.30;5.30;;;6.20;48.40;;;;;;5019224;28;20423;-89
2021/12/03 10:38:35;;;;;;;9.17;5.83;;;5.40;48.90;;;;;;5010757;28;21021;-89
2021/12/03 10:41:16;;;;;;;5.97;4.93;;;5.90;48.40;;;;;;5022446;28;20469;-86
2021/12/03 10:44:01;;;;;;;8.10;5.70;;;5.70;47.50;;;;;;5037814;28;20426;-85
2021/12/03 10:46:41;;;;;;;12.03;6.37;;;5.30;53.40;;;;;;5028902;28;20436;-84
2021/12/03 10:49:41;;;;;;;11.83;7.27;;;5.70;50.20;;;;;;5037298;28;20470;-85
2021/12/03 10:52:25;;;;;;;10.70;6.13;;;5.90;47.70;;;;;;5019503;28;20508;-88
2021/12/03 10:55:27;;;;;;;11.47;6.60;;;6.20;48.40;;;;;;5015972;28;20958;-89
2021/12/03 10:58:29;;;;;;;10.27;6.67;;;6.30;49.00;;;;;;5013835;28;20524;-88
2021/12/03 11:29:59;;;;;;;9.93;4.67;;;6.30;47.40;;;;;;4895427;29;20471;-89
2021/12/03 11:35:56;;;;;;;7.50;5.20;;;6.00;47.10;;;;;;5002655;28;20452;-90
2021/12/03 13:08:27;;;;;;;9.73;4.03;;;7.00;40.90;;;;;;4998612;28;20407;-89
2021/12/03 13:14:26;;;;;;;11.30;3.93;;;7.50;39.30;;;;;;4938884;29;20508;-90
2021/12/03 13:25:27;;;;;;;6.23;4.00;;;6.80;39.10;;;;;;5028617;28;20475;-86
2021/12/03 14:05:09;;;;;;;5.00;3.73;;;6.40;42.30;;;;;;5016539;28;20435;-89
2021/12/03 14:39:06;;;;;;;8.30;4.70;;;7.50;45.60;;;;;;5011921;28;20438;-90
2021/12/03 14:41:42;;;;;;;6.90;3.87;;;7.80;42.10;;;;;;5019398;28;20541;-90
2021/12/03 14:44:19;;;;;;;5.00;3.53;;;8.30;38.40;;;;;;5019310;28;20459;-89
2021/12/03 14:49:48;;;;;;;6.50;4.60;;;7.50;42.40;;;;;;5005266;28;20446;-90
2021/12/03 14:52:22;;;;;;;5.00;3.60;;;8.10;39.30;;;;;;5010215;28;20514;-89
2021/12/03 14:57:44;;;;;;;11.03;4.70;;;8.00;38.90;;;;;;5027505;28;20449;-89
2021/12/03 15:00:21;;;;;;;7.93;5.00;;;8.60;38.40;;;;;;5023218;28;20577;-90
2021/12/03 15:05:52;;;;;;;13.00;5.53;;;8.90;39.90;;;;;;5023448;28;20449;-90
2021/12/03 15:08:23;;;;;;;8.97;5.30;;;8.20;37.70;;;;;;5020724;28;20433;-90
2021/12/03 15:11:13;;;;;;;11.40;4.73;;;7.70;40.20;;;;;;5025760;28;20478;-89
2021/12/03 15:19:36;;;;;;;12.10;5.47;;;7.90;38.30;;;;;;5232397;22;20512;-91
2021/12/03 15:22:40;;;;;;;10.33;5.87;;;8.00;37.00;;;;;;5038999;28;20430;-90
2021/12/03 15:25:14;;;;;;;17.40;7.10;;;8.00;37.50;;;;;;5042881;28;20429;-89
2021/12/03 15:27:58;;;;;;;14.83;7.90;;;8.30;38.40;;;;;;5051525;28;20449;-87
2021/12/03 15:35:56;;;;;;;12.90;6.90;;;8.50;37.10;;;;;;5003169;28;20446;-89
2021/12/03 15:53:10;;;;;;;13.63;6.50;;;8.40;39.70;;;;;;5023718;28;20573;-90
2021/12/03 15:58:35;;;;;;;7.40;4.50;;;8.40;36.70;;;;;;4984934;28;20480;-90
2021/12/03 16:04:00;;;;;;;6.13;3.70;;;8.80;45.70;;;;;;5017521;28;20418;-86
2021/12/03 16:06:35;;;;;;;7.50;4.73;;;8.70;35.30;;;;;;5011230;28;20499;-85
2021/12/03 16:09:10;;;;;;;8.40;4.90;;;8.50;35.10;;;;;;5037124;28;20461;-85
2021/12/03 16:11:44;;;;;;;13.60;5.63;;;8.10;36.80;;;;;;5027228;28;20572;-89
2021/12/03 16:22:36;;;;;;;10.53;6.33;;;9.00;39.80;;;;;;5015932;28;21005;-88
2021/12/03 16:25:28;;;;;;;15.00;4.90;;;8.90;36.60;;;;;;5018300;28;20456;-88
2021/12/03 16:44:44;;;;;;;11.23;4.30;;;8.50;37.80;;;;;;4999168;28;20450;-87
2021/12/03 16:47:31;;;;;;;7.23;3.70;;;8.80;41.30;;;;;;5000242;28;20432;-88
2021/12/03 16:50:36;;;;;;;9.30;4.70;;;8.60;35.20;;;;;;5007371;28;20458;-89
2021/12/03 16:53:04;;;;;;;12.30;5.03;;;7.70;39.70;;;;;;5021948;28;20444;-89
2021/12/03 16:55:31;;;;;;;5.90;4.00;;;8.40;50.20;;;;;;5021807;28;20438;-89
2021/12/03 16:57:58;;;;;;;10.73;4.90;;;8.90;49.60;;;;;;5021866;28;20529;-89
2021/12/03 17:00:29;;;;;;;20.70;9.30;;;8.90;41.30;;;;;;5022414;28;20524;-88
2021/12/03 17:03:20;;;;;;;14.23;7.17;;;8.40;36.20;;;;;;5014233;28;20485;-90
2021/12/03 17:06:39;;;;;;;10.53;6.00;;;8.60;37.10;;;;;;5004959;28;20446;-89
2021/12/03 17:48:56;;;;;;;12.03;4.37;;;8.40;36.90;;;;;;5004050;28;20915;-88
2021/12/03 17:57:18;;;;;;;7.53;3.63;;;7.90;43.60;;;;;;5005643;28;20408;-89
2021/12/03 18:02:43;;;;;;;9.43;4.37;;;7.50;38.50;;;;;;5051423;28;20493;-89
2021/12/03 18:05:29;;;;;;;5.87;3.90;;;7.90;34.60;;;;;;5032137;28;20446;-88
2021/12/03 18:08:16;;;;;;;15.07;4.70;;;7.70;45.30;;;;;;5022922;28;20477;-89
2021/12/03 18:11:08;;;;;;;5.57;4.10;;;8.20;39.70;;;;;;5022646;28;20478;-89
2021/12/03 18:13:57;;;;;;;6.00;4.40;;;7.80;35.30;;;;;;5024688;28;20529;-90
2021/12/03 18:16:50;;;;;;;6.60;4.43;;;7.60;41.50;;;;;;5042338;28;20441;-89
2021/12/03 18:44:34;;;;;;;10.20;5.53;;;8.30;38.00;;;;;;5012550;28;20487;-85
2021/12/03 18:50:00;;;;;;;12.80;6.60;;;8.60;42.20;;;;;;4997880;28;20852;-88
2021/12/03 18:52:50;;;;;;;15.93;6.70;;;8.70;34.30;;;;;;5004784;28;20474;-88
2021/12/03 18:55:27;;;;;;;12.40;6.93;;;8.30;35.00;;;;;;5005114;28;20522;-89
2021/12/03 18:57:59;;;;;;;18.20;7.37;;;8.80;34.80;;;;;;5026781;28;20449;-88
2021/12/03 19:00:30;;;;;;;13.20;7.27;;;8.70;35.30;;;;;;5010497;28;20486;-88
2021/12/03 19:03:00;;;;;;;23.07;8.97;;;9.10;38.80;;;;;;5013705;28;20937;-89
2021/12/03 19:05:35;;;;;;;12.07;6.03;;;9.30;43.00;;;;;;5019434;28;20450;-88
2021/12/03 19:08:08;;;;;;;14.50;5.93;;;9.40;35.80;;;;;;5017631;28;20446;-88
2021/12/03 19:10:42;;;;;;;16.53;8.00;;;9.60;41.20;;;;;;5033129;28;20469;-89
2021/12/03 19:13:13;;;;;;;36.83;15.80;;;9.70;44.00;;;;;;5025851;28;20493;-90
2021/12/03 19:15:43;;;;;;;26.10;11.13;;;9.60;40.60;;;;;;5026819;28;20497;-88
2021/12/03 19:18:10;;;;;;;56.77;22.20;;;9.50;40.30;;;;;;5026026;28;20431;-89
2021/12/03 19:20:41;;;;;;;33.47;17.20;;;9.20;37.40;;;;;;5020353;28;20482;-90
2021/12/03 19:23:09;;;;;;;19.87;10.20;;;9.10;42.80;;;;;;5020512;28;20991;-89
2021/12/03 19:25:44;;;;;;;22.33;10.80;;;9.30;40.10;;;;;;5007456;28;20420;-89
2021/12/03 19:28:36;;;;;;;17.20;10.40;;;9.00;42.70;;;;;;5011717;28;20450;-89
2021/12/03 19:31:20;;;;;;;16.57;10.50;;;9.50;39.60;;;;;;5011996;28;20466;-89
2021/12/03 19:33:49;;;;;;;21.97;10.90;;;9.10;42.00;;;;;;5013147;28;20441;-89
2021/12/03 19:36:21;;;;;;;20.43;11.20;;;9.50;45.20;;;;;;5003294;28;20498;-89
2021/12/03 19:38:49;;;;;;;21.33;11.93;;;9.70;40.00;;;;;;4998022;28;20558;-89
2021/12/03 19:41:28;;;;;;;24.40;11.10;;;9.40;40.50;;;;;;4997487;28;20439;-89